Time;durP1;ratioP1;P1;durP2;ratioP2;P2;SDS_P1;SDS_P2;PMS_P1;PMS_P2;Temp;Humidity;BMP_temperature;BMP_pressure;BME280_temperature;BME280_humidity;BME280_pressure;Samples;Min_cycle;Max_cycle;Signal;HPM_P1;HPM_P2
2022/06/20 00:00:07;;;;;;;15.20;7.15;;;;;;;21.49;67.92;96584.06;5068293;28;20041;-66
2022/06/20 00:02:41;;;;;;;15.88;7.10;;;;;;;21.53;67.71;96583.03;5068331;28;20045;-67
2022/06/20 00:05:13;;;;;;;11.85;6.75;;;;;;;21.63;67.47;96581.78;5068373;28;20044;-66
2022/06/20 00:07:39;;;;;;;9.93;6.35;;;;;;;21.73;66.64;96593.50;5068167;28;20040;-67
2022/06/20 00:10:07;;;;;;;10.60;7.13;;;;;;;21.71;67.50;96588.34;5068068;28;20526;-66
2022/06/20 00:12:34;;;;;;;16.30;7.05;;;;;;;21.45;68.41;96586.72;5067879;28;20037;-66
2022/06/20 00:15:00;;;;;;;12.48;7.60;;;;;;;21.53;68.16;96583.03;5067736;28;20052;-66
2022/06/20 00:17:27;;;;;;;12.75;7.35;;;;;;;21.60;67.33;96588.00;5067923;28;20546;-67
2022/06/20 00:19:54;;;;;;;12.60;6.60;;;;;;;21.59;67.56;96578.09;5068114;28;20040;-67
2022/06/20 00:22:21;;;;;;;13.07;6.88;;;;;;;21.60;67.87;96576.16;5067404;28;20037;-67
2022/06/20 00:24:47;;;;;;;13.40;7.68;;;;;;;21.63;67.58;96578.22;5064078;28;20401;-66
2022/06/20 00:27:14;;;;;;;20.23;7.05;;;;;;;21.54;67.52;96578.34;5064122;28;20041;-66
2022/06/20 00:29:43;;;;;;;12.23;6.50;;;;;;;21.58;67.82;96579.25;5066990;28;20389;-66
2022/06/20 00:32:10;;;;;;;18.05;8.68;;;;;;;21.35;68.42;96595.41;5067256;28;20038;-66
2022/06/20 00:34:37;;;;;;;22.30;8.05;;;;;;;21.51;68.63;96579.00;5067509;28;20086;-66
2022/06/20 00:37:05;;;;;;;11.65;6.85;;;;;;;21.65;67.74;96587.75;5067017;28;20094;-67
2022/06/20 00:39:32;;;;;;;13.18;7.07;;;;;;;21.61;68.31;96583.28;5067564;28;20059;-66
2022/06/20 00:42:00;;;;;;;12.20;7.10;;;;;;;21.65;68.97;96596.03;5067220;28;20507;-67
2022/06/20 00:44:34;;;;;;;10.77;6.68;;;;;;;21.49;69.25;96576.59;5067069;28;20044;-67
2022/06/20 00:47:06;;;;;;;14.55;8.15;;;;;;;21.65;67.84;96579.50;5067493;28;20079;-66
2022/06/20 00:50:01;;;;;;;19.58;8.05;;;;;;;21.77;69.07;96583.41;5066981;28;20032;-67
2022/06/20 00:52:36;;;;;;;16.35;6.88;;;;;;;21.53;71.56;96576.75;5067218;28;20505;-67
2022/06/20 00:55:26;;;;;;;13.60;7.18;;;;;;;21.47;69.84;96592.69;5067723;28;20098;-67
2022/06/20 00:58:00;;;;;;;14.50;6.97;;;;;;;21.40;71.34;96592.44;5067374;28;20041;-67
2022/06/20 01:00:31;;;;;;;15.98;7.55;;;;;;;21.30;70.80;96585.44;5066705;28;20048;-67
2022/06/20 01:03:11;;;;;;;12.30;6.90;;;;;;;21.24;70.60;96593.13;5066871;28;20053;-67
2022/06/20 01:05:47;;;;;;;14.38;7.38;;;;;;;21.40;69.62;96590.50;5067499;28;20515;-67
2022/06/20 01:08:19;;;;;;;12.90;7.25;;;;;;;21.48;69.42;96593.50;5067378;28;20044;-66
2022/06/20 01:10:51;;;;;;;13.55;7.03;;;;;;;21.62;68.05;96593.94;5067503;28;20051;-66
2022/06/20 01:13:21;;;;;;;10.75;6.75;;;;;;;21.68;68.15;96594.53;5067058;28;20332;-66
2022/06/20 01:15:51;;;;;;;12.80;6.88;;;;;;;21.70;67.85;96589.47;5067374;28;20048;-67
2022/06/20 01:18:22;;;;;;;15.98;6.88;;;;;;;21.77;67.64;96586.16;5066847;28;20461;-67
2022/06/20 01:20:50;;;;;;;17.50;7.40;;;;;;;21.54;69.29;96595.69;5065832;28;20047;-67
2022/06/20 01:23:44;;;;;;;14.38;7.30;;;;;;;21.14;70.74;96591.59;5066748;28;20532;-67
2022/06/20 01:26:32;;;;;;;12.43;7.13;;;;;;;20.96;70.87;96595.69;5066771;28;20044;-66
2022/06/20 01:29:03;;;;;;;11.95;7.40;;;;;;;20.59;72.99;96582.56;5061993;28;20340;-66
2022/06/20 01:31:36;;;;;;;16.20;8.68;;;;;;;20.48;73.19;96580.22;5063153;28;20525;-67
2022/06/20 01:34:03;;;;;;;12.75;7.78;;;;;;;20.60;73.11;96571.22;5067187;28;20079;-66
2022/06/20 01:39:21;;;;;;;17.23;8.10;;;;;;;20.58;72.62;96569.97;5066454;28;20044;-66
2022/06/20 01:44:43;;;;;;;13.25;7.55;;;;;;;20.53;72.84;96579.25;5066826;28;20082;-67
2022/06/20 01:47:10;;;;;;;15.82;7.50;;;;;;;20.77;71.52;96580.47;5066366;28;20300;-67
2022/06/20 01:49:39;;;;;;;13.18;6.97;;;;;;;20.89;71.46;96571.47;5066945;28;20549;-67
2022/06/20 01:52:17;;;;;;;15.07;7.93;;;;;;;21.01;70.53;96581.72;5066429;28;20041;-66
2022/06/20 01:54:49;;;;;;;13.93;7.32;;;;;;;21.11;70.29;96578.50;5066924;28;20048;-66
2022/06/20 01:57:17;;;;;;;11.57;7.63;;;;;;;21.11;70.97;96572.22;5066513;28;20098;-67
2022/06/20 02:00:07;;;;;;;14.57;7.22;;;;;;;21.03;70.51;96584.91;5066080;28;20064;-67
2022/06/20 02:02:38;;;;;;;21.00;7.68;;;;;;;21.08;70.35;96581.94;5066268;28;20036;-67
2022/06/20 02:05:07;;;;;;;11.55;7.13;;;;;;;21.04;70.44;96575.50;5066501;28;20051;-66
2022/06/20 02:07:35;;;;;;;15.00;7.65;;;;;;;21.09;70.19;96572.56;5066336;28;20102;-66
2022/06/20 02:10:05;;;;;;;12.73;7.40;;;;;;;21.08;70.06;96572.91;5069001;28;20110;-67
2022/06/20 02:12:35;;;;;;;14.65;6.50;;;;;;;21.07;69.91;96572.09;5070735;28;20047;-67
2022/06/20 02:15:04;;;;;;;15.02;7.72;;;;;;;21.04;70.09;96554.31;5070317;28;20037;-67
2022/06/20 02:17:36;;;;;;;13.70;7.72;;;;;;;21.00;69.76;96558.88;5068723;28;20048;-67
2022/06/20 02:20:07;;;;;;;10.88;6.75;;;;;;;20.88;70.84;96561.59;5069916;28;20049;-67
2022/06/20 02:22:35;;;;;;;15.80;6.95;;;;;;;20.83;70.56;96562.59;5069836;28;20041;-66
2022/06/20 02:25:06;;;;;;;10.25;6.65;;;;;;;20.85;70.46;96554.00;5070695;28;20048;-67
2022/06/20 02:27:38;;;;;;;9.43;6.77;;;;;;;20.94;69.56;96545.69;5069338;28;20048;-66
2022/06/20 02:30:06;;;;;;;13.43;6.97;;;;;;;20.90;69.45;96540.84;5069730;28;20052;-66
2022/06/20 02:32:38;;;;;;;14.20;6.95;;;;;;;20.88;69.84;96536.84;5069790;28;20045;-66
2022/06/20 02:35:08;;;;;;;12.90;7.10;;;;;;;20.97;67.88;96537.53;5070272;28;20450;-66
2022/06/20 02:37:35;;;;;;;12.38;5.20;;;;;;;21.61;60.23;96531.75;5070221;28;20044;-66
2022/06/20 02:40:06;;;;;;;11.02;4.65;;;;;;;22.15;55.50;96535.34;5068809;28;20045;-66
2022/06/20 02:42:35;;;;;;;10.88;4.70;;;;;;;23.50;46.62;96536.97;5069757;28;20526;-67
2022/06/20 02:45:07;;;;;;;8.38;3.85;;;;;;;24.25;44.19;96536.25;5069545;28;20052;-67
2022/06/20 02:47:37;;;;;;;9.77;3.90;;;;;;;25.19;40.41;96536.47;5069760;28;20045;-66
2022/06/20 02:50:05;;;;;;;9.48;3.22;;;;;;;25.64;38.69;96534.03;5069455;28;20044;-66
2022/06/20 02:52:38;;;;;;;16.30;3.38;;;;;;;25.91;38.08;96538.78;5069355;28;20492;-66
2022/06/20 02:55:06;;;;;;;14.50;4.13;;;;;;;26.00;37.77;96541.28;5069884;28;20059;-67
2022/06/20 02:57:37;;;;;;;15.10;4.63;;;;;;;26.26;36.38;96526.59;5069175;28;20044;-67
2022/06/20 03:00:08;;;;;;;11.82;3.53;;;;;;;26.17;36.88;96534.41;5069328;28;20052;-67
2022/06/20 03:02:39;;;;;;;8.95;3.55;;;;;;;26.26;36.48;96526.59;5068597;28;20281;-67
2022/06/20 03:05:07;;;;;;;13.07;3.63;;;;;;;26.19;36.41;96530.06;5069796;28;20040;-67
2022/06/20 03:07:37;;;;;;;10.20;3.53;;;;;;;26.17;36.40;96539.94;5068836;28;20385;-67
2022/06/20 03:10:33;;;;;;;9.38;3.63;;;;;;;26.05;36.86;96580.59;5069457;28;20044;-67
2022/06/20 03:13:00;;;;;;;8.77;3.85;;;;;;;25.35;44.33;96624.19;5068554;28;20094;-67
2022/06/20 03:15:27;;;;;;;13.77;5.00;;;;;;;24.30;49.01;96637.53;5068985;28;20440;-67
2022/06/20 03:17:57;;;;;;;13.95;5.28;;;;;;;23.29;54.43;96674.50;5069508;28;20049;-66
2022/06/20 03:20:26;;;;;;;11.68;5.18;;;;;;;22.30;58.72;96674.44;5069140;28;20037;-66
2022/06/20 03:22:56;;;;;;;10.80;5.35;;;;;;;21.35;62.94;96692.59;5068839;28;20495;-67
2022/06/20 03:25:23;;;;;;;16.33;5.68;;;;;;;21.22;63.60;96716.50;5069405;28;20041;-67
2022/06/20 03:27:52;;;;;;;14.73;5.95;;;;;;;21.22;63.25;96744.03;5069385;28;20282;-66
2022/06/20 03:30:35;;;;;;;12.32;5.22;;;;;;;20.84;65.67;96747.72;5068283;28;20032;-66
2022/06/20 03:33:06;;;;;;;9.80;4.90;;;;;;;20.65;68.11;96736.03;5069179;28;20041;-67
2022/06/20 03:35:35;;;;;;;19.90;6.78;;;;;;;20.31;72.75;96704.06;5068663;28;20037;-66
2022/06/20 03:38:06;;;;;;;16.35;6.40;;;;;;;19.46;77.95;96705.34;5067661;28;20454;-66
2022/06/20 03:40:34;;;;;;;18.20;8.00;;;;;;;19.02;78.07;96710.88;5069359;28;20045;-67
2022/06/20 03:43:01;;;;;;;15.27;6.63;;;;;;;19.10;84.08;96707.34;5068154;28;20059;-66
2022/06/20 03:45:32;;;;;;;18.80;6.93;;;;;;;18.83;85.34;96703.78;5068570;28;20491;-67
2022/06/20 03:48:08;;;;;;;13.00;6.43;;;;;;;18.64;81.35;96719.78;5068001;28;20036;-66
2022/06/20 03:50:48;;;;;;;12.18;5.88;;;;;;;18.65;82.83;96748.78;5068632;28;20519;-66
2022/06/20 03:53:24;;;;;;;12.95;5.97;;;;;;;18.78;87.38;96744.28;5068224;28;20045;-66
2022/06/20 03:56:20;;;;;;;9.93;5.40;;;;;;;18.61;86.16;96761.53;5067629;28;20048;-66
2022/06/20 03:58:49;;;;;;;16.25;6.45;;;;;;;18.58;84.28;96784.91;5066477;28;20123;-66
2022/06/20 04:01:36;;;;;;;13.40;6.28;;;;;;;18.70;84.65;96767.81;5065329;28;20070;-67
2022/06/20 04:04:13;;;;;;;10.63;6.25;;;;;;;18.50;89.45;96766.50;5063629;28;20048;-66
2022/06/20 04:06:49;;;;;;;13.07;7.25;;;;;;;18.26;89.47;96781.41;5064901;28;20053;-66
2022/06/20 04:12:36;;;;;;;15.27;7.57;;;;;;;18.35;91.72;96748.56;5063950;28;20122;-66
2022/06/20 04:15:16;;;;;;;19.17;7.07;;;;;;;18.29;90.04;96750.66;5066013;28;20048;-66
2022/06/20 04:20:49;;;;;;;15.57;6.47;;;;;;;18.25;88.09;96771.59;5064272;28;20051;-67
2022/06/20 04:23:21;;;;;;;11.38;6.10;;;;;;;18.40;86.47;96749.25;5064647;28;20045;-66
2022/06/20 04:26:04;;;;;;;14.68;7.68;;;;;;;18.46;87.50;96730.69;5065233;28;20060;-67
2022/06/20 04:28:54;;;;;;;10.70;5.78;;;;;;;18.39;85.76;96750.34;5067327;28;20488;-67
2022/06/20 04:31:36;;;;;;;12.57;5.43;;;;;;;18.29;87.64;96769.84;5067433;28;20408;-66
2022/06/20 04:34:28;;;;;;;16.02;6.20;;;;;;;18.38;87.47;96770.66;5067646;28;20120;-67
2022/06/20 04:36:56;;;;;;;;;;;;;;;18.43;85.55;96778.72;5048181;28;20044;-66
2022/06/20 04:39:29;;;;;;;12.30;5.32;;;;;;;18.34;84.43;96808.06;5060742;28;19924;-66
2022/06/20 04:42:05;;;;;;;10.70;4.75;;;;;;;18.26;84.94;96793.19;5067121;28;20420;-67
2022/06/20 04:44:55;;;;;;;10.27;4.63;;;;;;;18.31;83.58;96773.88;5067598;28;20045;-66
2022/06/20 04:47:50;;;;;;;12.48;5.47;;;;;;;18.37;82.22;96768.22;5067434;28;20053;-67
2022/06/20 04:50:21;;;;;;;14.40;6.15;;;;;;;18.21;82.45;96782.38;5067001;28;20063;-66
2022/06/20 04:52:51;;;;;;;14.73;5.80;;;;;;;18.26;84.38;96808.81;5067389;28;20454;-66
2022/06/20 04:55:22;;;;;;;11.68;5.82;;;;;;;18.21;85.35;96801.56;5067507;28;20032;-66
2022/06/20 04:57:51;;;;;;;14.68;5.88;;;;;;;18.25;84.64;96793.50;5067214;28;20067;-66
2022/06/20 05:00:21;;;;;;;10.32;5.38;;;;;;;18.23;86.57;96790.25;5066642;28;20363;-66
2022/06/20 05:02:50;;;;;;;15.07;6.50;;;;;;;18.32;88.88;96780.97;5066627;28;20043;-66
2022/06/20 05:05:27;;;;;;;11.38;5.30;;;;;;;18.43;86.39;96777.94;5067189;28;20500;-66
2022/06/20 05:07:53;;;;;;;13.43;5.15;;;;;;;18.52;83.94;96758.75;5066690;28;20090;-66
2022/06/20 05:10:36;;;;;;;9.23;5.35;;;;;;;18.48;83.07;96775.03;5067898;28;20533;-66
2022/06/20 05:13:15;;;;;;;17.73;5.65;;;;;;;18.30;86.31;96777.75;5066830;28;20056;-66
2022/06/20 05:15:46;;;;;;;18.98;6.30;;;;;;;18.47;88.78;96767.97;5066710;28;20049;-66
2022/06/20 05:18:15;;;;;;;17.85;6.68;;;;;;;18.69;88.82;96723.16;5066627;28;20049;-66
2022/06/20 05:20:44;;;;;;;9.90;5.88;;;;;;;18.73;86.87;96734.28;5066710;28;20041;-67
2022/06/20 05:23:32;;;;;;;11.95;5.38;;;;;;;18.35;89.83;96763.06;5067041;28;20045;-66
2022/06/20 05:26:01;;;;;;;14.82;6.53;;;;;;;18.32;90.42;96771.94;5066835;28;20056;-66
2022/06/20 05:28:28;;;;;;;13.98;6.63;;;;;;;18.34;89.29;96772.41;5067008;28;20442;-66
2022/06/20 05:30:56;;;;;;;14.05;7.32;;;;;;;18.44;90.13;96763.91;5066719;28;20083;-67
2022/06/20 05:33:36;;;;;;;12.95;7.38;;;;;;;18.54;87.79;96760.06;5067086;28;20457;-67
2022/06/20 05:36:14;;;;;;;13.30;6.40;;;;;;;18.76;87.43;96752.81;5066085;28;20049;-66
2022/06/20 05:38:51;;;;;;;14.77;6.78;;;;;;;18.66;86.26;96770.41;5066294;28;20445;-66
2022/06/20 05:41:18;;;;;;;11.57;6.90;;;;;;;18.63;89.02;96786.69;5064578;28;20538;-66
2022/06/20 05:43:44;;;;;;;14.07;6.40;;;;;;;18.73;86.59;96797.38;5063389;28;20063;-66
2022/06/20 05:46:24;;;;;;;12.57;6.78;;;;;;;18.92;89.03;96801.72;5064157;28;20056;-66
2022/06/20 05:49:01;;;;;;;16.85;7.05;;;;;;;19.17;88.40;96811.13;5064144;28;20052;-66
2022/06/20 05:51:28;;;;;;;14.18;6.78;;;;;;;19.28;86.30;96822.63;5064869;28;20098;-66
2022/06/20 05:53:55;;;;;;;14.80;7.03;;;;;;;19.16;86.24;96830.69;5064100;28;20037;-66
2022/06/20 05:56:30;;;;;;;11.52;6.18;;;;;;;19.27;85.49;96839.41;5064291;28;20600;-67
2022/06/20 05:58:59;;;;;;;12.80;6.32;;;;;;;19.16;86.25;96847.94;5063519;28;20057;-66
2022/06/20 06:01:33;;;;;;;12.00;6.13;;;;;;;19.29;83.89;96848.94;5066443;28;20044;-66
2022/06/20 06:04:16;;;;;;;16.85;8.00;;;;;;;19.45;85.10;96848.44;5066617;28;20044;-66
2022/06/20 06:06:49;;;;;;;12.13;6.75;;;;;;;19.34;84.44;96842.47;5066280;28;20051;-67
2022/06/20 06:09:26;;;;;;;14.63;7.40;;;;;;;19.41;83.90;96839.22;5066655;28;20041;-67
2022/06/20 06:12:01;;;;;;;14.80;6.95;;;;;;;19.48;82.55;96836.81;5065704;28;20403;-67
2022/06/20 06:14:43;;;;;;;12.88;6.28;;;;;;;19.53;81.15;96825.66;5062607;28;20095;-67
2022/06/20 06:17:20;;;;;;;16.42;6.35;;;;;;;19.47;82.87;96821.47;5055855;28;20127;-67
2022/06/20 06:20:19;;;;;;;14.07;7.13;;;;;;;19.43;82.39;96817.75;5053536;28;20112;-67
2022/06/20 06:22:50;;;;;;;16.95;6.93;;;;;;;19.42;82.60;96813.41;5063816;28;20045;-68
2022/06/20 06:25:34;;;;;;;20.48;7.32;;;;;;;19.39;84.49;96817.63;5062214;28;20089;-67
2022/06/20 06:28:05;;;;;;;15.95;6.85;;;;;;;19.34;83.34;96824.06;5056799;28;20048;-67
2022/06/20 06:30:42;;;;;;;13.38;7.43;;;;;;;19.40;83.89;96823.91;5059457;28;20044;-67
2022/06/20 06:33:20;;;;;;;14.32;7.20;;;;;;;19.44;84.28;96825.69;5063708;28;20040;-67
2022/06/20 06:36:00;;;;;;;9.80;6.35;;;;;;;19.79;83.20;96829.53;5071455;28;20336;-67
2022/06/20 06:38:33;;;;;;;11.65;6.10;;;;;;;19.83;81.77;96819.50;5063303;28;20049;-67
2022/06/20 06:41:03;;;;;;;17.08;7.50;;;;;;;20.16;82.89;96812.63;5051556;28;20157;-67
2022/06/20 06:43:38;;;;;;;11.73;7.07;;;;;;;20.33;80.67;96817.25;5063964;28;20040;-67
2022/06/20 06:46:13;;;;;;;11.50;6.32;;;;;;;20.50;79.44;96825.41;5063417;28;20058;-67
2022/06/20 06:48:50;;;;;;;13.68;6.70;;;;;;;20.81;78.79;96831.72;5063172;28;20059;-67
2022/06/20 06:51:27;;;;;;;12.75;4.80;;;;;;;20.96;70.05;96824.88;5063759;28;20180;-67
2022/06/20 06:53:59;;;;;;;12.55;6.40;;;;;;;21.28;72.25;96830.81;5050383;28;20048;-68
2022/06/20 06:56:32;;;;;;;10.25;5.28;;;;;;;21.53;68.74;96825.41;5067101;28;20459;-66
2022/06/20 06:59:20;;;;;;;12.32;4.88;;;;;;;21.83;68.98;96814.28;5066532;28;20454;-67
2022/06/20 07:01:50;;;;;;;10.57;5.10;;;;;;;22.09;64.55;96831.69;5069310;28;20063;-67
2022/06/20 07:04:22;;;;;;;12.30;4.73;;;;;;;22.27;63.73;96837.81;5069296;28;20040;-67
2022/06/20 07:07:16;;;;;;;8.05;4.47;;;;;;;22.45;61.96;96827.38;5068714;28;20051;-66
2022/06/20 07:09:49;;;;;;;9.32;4.32;;;;;;;22.67;63.19;96830.84;5068945;28;20043;-66
2022/06/20 07:12:32;;;;;;;8.57;4.93;;;;;;;22.90;60.86;96826.81;5069382;28;20041;-67
2022/06/20 07:15:13;;;;;;;9.82;4.43;;;;;;;23.15;60.99;96830.34;5069088;28;20044;-67
2022/06/20 07:17:46;;;;;;;7.63;4.13;;;;;;;23.27;59.14;96837.78;5069357;28;20040;-66
2022/06/20 07:20:13;;;;;;;9.80;4.03;;;;;;;23.43;57.78;96840.66;5068909;28;20378;-67
2022/06/20 07:22:43;;;;;;;13.30;4.70;;;;;;;23.50;57.06;96848.34;5069558;28;20044;-66
2022/06/20 07:25:18;;;;;;;9.45;3.65;;;;;;;23.67;57.75;96846.44;5068385;28;20048;-67
2022/06/20 07:27:59;;;;;;;11.57;3.80;;;;;;;23.82;56.75;96848.44;5068888;28;20048;-67
2022/06/20 07:30:30;;;;;;;6.55;3.80;;;;;;;23.97;54.74;96849.66;5069064;28;20047;-67
2022/06/20 07:33:04;;;;;;;8.20;4.22;;;;;;;24.01;54.67;96850.53;5068971;28;20539;-66
2022/06/20 07:35:37;;;;;;;8.80;4.55;;;;;;;24.07;55.13;96864.94;5068767;28;20131;-67
2022/06/20 07:38:11;;;;;;;8.57;4.18;;;;;;;24.22;55.33;96863.38;5064955;28;20055;-66
2022/06/20 07:41:13;;;;;;;9.82;3.90;;;;;;;24.21;55.09;96869.25;5058724;28;20137;-67
2022/06/20 07:43:49;;;;;;;12.10;5.85;;;;;;;23.81;56.46;96870.91;5056688;28;20515;-67
2022/06/20 07:46:30;;;;;;;11.45;4.22;;;;;;;23.86;55.36;96876.19;5066376;28;20138;-67
2022/06/20 07:49:01;;;;;;;10.20;3.95;;;;;;;23.95;54.80;96876.81;5065926;28;20072;-66
2022/06/20 07:51:36;;;;;;;9.77;4.35;;;;;;;23.81;55.50;96895.78;5053810;28;20087;-67
2022/06/20 07:54:11;;;;;;;11.52;4.10;;;;;;;23.71;55.81;96899.84;5065880;28;20404;-67
2022/06/20 07:56:47;;;;;;;9.63;4.38;;;;;;;23.93;55.99;96898.50;5065787;28;20110;-68
2022/06/20 07:59:33;;;;;;;9.93;4.43;;;;;;;23.77;56.46;96913.06;5067279;28;20044;-67
2022/06/20 08:02:07;;;;;;;11.40;4.43;;;;;;;23.65;55.77;96902.06;5067962;28;20040;-67
2022/06/20 08:04:35;;;;;;;14.43;5.72;;;;;;;23.62;57.88;96917.38;5068474;28;20064;-66
2022/06/20 08:07:15;;;;;;;9.30;4.25;;;;;;;23.51;57.45;96902.44;5066959;28;20082;-67
2022/06/20 08:09:52;;;;;;;9.80;4.35;;;;;;;23.69;57.05;96908.50;5067936;28;20375;-67
2022/06/20 08:12:45;;;;;;;14.00;4.50;;;;;;;23.65;57.87;96907.56;5066981;28;20040;-67
2022/06/20 08:15:20;;;;;;;10.90;4.55;;;;;;;23.04;59.20;96898.22;5068396;28;20055;-66
2022/06/20 08:17:47;;;;;;;8.02;4.65;;;;;;;22.95;59.30;96890.88;5067118;28;20044;-67
2022/06/20 08:20:16;;;;;;;8.57;3.65;;;;;;;23.04;58.38;96889.94;5067367;28;20048;-66
2022/06/20 08:22:58;;;;;;;9.88;4.00;;;;;;;23.10;59.15;96878.31;5067760;28;20521;-67
2022/06/20 08:25:34;;;;;;;9.85;5.68;;;;;;;23.40;58.10;96896.59;5065572;28;20040;-67
2022/06/20 08:28:18;;;;;;;12.55;4.97;;;;;;;23.03;58.15;96889.13;5065407;28;20555;-67
2022/06/20 08:30:57;;;;;;;12.80;4.88;;;;;;;23.42;57.71;96902.59;5065732;28;20051;-67
2022/06/20 08:33:42;;;;;;;17.85;5.07;;;;;;;23.62;57.09;96903.56;5065541;28;20037;-67
2022/06/20 08:36:22;;;;;;;12.32;5.00;;;;;;;23.95;56.90;96878.81;5075142;28;20404;-66
2022/06/20 08:39:07;;;;;;;9.82;5.28;;;;;;;24.19;55.24;96893.69;5065150;28;20421;-67
2022/06/20 08:41:43;;;;;;;6.82;4.28;;;;;;;24.68;54.77;96876.78;5065518;28;20040;-67
2022/06/20 08:44:46;;;;;;;10.98;4.97;;;;;;;24.98;53.18;96872.75;5065610;28;20037;-67
2022/06/20 08:47:51;;;;;;;13.60;4.80;;;;;;;25.07;52.55;96880.88;5064831;28;20056;-67
2022/06/20 08:50:25;;;;;;;9.68;4.93;;;;;;;24.75;53.31;96886.41;5065199;28;20057;-69
2022/06/20 08:53:11;;;;;;;9.80;4.80;;;;;;;25.04;53.11;96903.72;5064912;28;20078;-67
2022/06/20 08:56:06;;;;;;;13.40;4.88;;;;;;;25.06;51.71;96906.97;5064957;28;20110;-67
2022/06/20 08:58:32;;;;;;;9.30;4.88;;;;;;;24.85;51.80;96910.81;5065075;28;20075;-67
2022/06/20 09:01:12;;;;;;;9.38;4.53;;;;;;;25.37;51.61;96902.50;5065252;28;20090;-67
2022/06/20 09:04:06;;;;;;;7.38;4.35;;;;;;;25.61;50.06;96900.66;5064208;28;20409;-67
2022/06/20 09:06:55;;;;;;;10.43;4.70;;;;;;;25.95;50.19;96898.19;5065119;28;20059;-67
2022/06/20 09:09:35;;;;;;;9.57;4.47;;;;;;;25.64;50.24;96890.81;5064472;28;20067;-66
2022/06/20 09:12:28;;;;;;;9.57;5.47;;;;;;;25.76;49.60;96893.44;5051298;28;20584;-67
2022/06/20 09:15:18;;;;;;;9.30;4.13;;;;;;;25.41;50.90;96917.25;5064890;28;20060;-67
2022/06/20 09:17:59;;;;;;;11.13;4.75;;;;;;;25.81;50.30;96923.66;5064786;28;20106;-67
2022/06/20 09:20:43;;;;;;;7.97;4.40;;;;;;;25.99;50.22;96928.78;5064398;28;20051;-67
2022/06/20 09:23:13;;;;;;;9.73;4.03;;;;;;;25.94;49.79;96931.84;5065015;28;20329;-67
2022/06/20 09:25:45;;;;;;;11.88;4.68;;;;;;;25.93;48.94;96936.59;5064742;28;20067;-67
2022/06/20 09:28:45;;;;;;;14.85;5.35;;;;;;;25.72;50.02;96928.59;5060386;28;20121;-66
2022/06/20 09:31:39;;;;;;;8.07;3.50;;;;;;;26.15;49.98;96928.69;5064242;28;20072;-67
2022/06/20 09:34:21;;;;;;;7.78;4.10;;;;;;;26.06;48.64;96939.22;5064424;28;20048;-67
2022/06/20 09:37:11;;;;;;;13.15;5.50;;;;;;;25.97;49.60;96936.66;5064475;28;20515;-67
2022/06/20 09:39:54;;;;;;;8.80;4.28;;;;;;;26.12;48.95;96932.19;5062480;28;20107;-67
2022/06/20 09:42:31;;;;;;;14.25;4.60;;;;;;;26.18;48.46;96930.72;5066600;28;20059;-66
2022/06/20 09:45:21;;;;;;;13.43;4.10;;;;;;;25.93;48.50;96933.81;5067229;28;20454;-68
2022/06/20 09:47:56;;;;;;;14.38;4.90;;;;;;;25.82;49.21;96939.13;5066111;28;20419;-68
2022/06/20 09:50:48;;;;;;;11.93;3.80;;;;;;;26.18;48.55;96936.28;5066712;28;20482;-67
2022/06/20 09:53:15;;;;;;;12.23;4.70;;;;;;;26.19;48.22;96939.84;5062335;28;20530;-68
2022/06/20 09:55:48;;;;;;;10.13;4.70;;;;;;;26.43;47.84;96941.53;5064655;28;20048;-67
2022/06/20 09:58:49;;;;;;;10.18;4.38;;;;;;;25.70;49.13;96942.03;5052262;28;20067;-67
2022/06/20 10:01:33;;;;;;;11.30;6.40;;;;;;;26.09;48.84;96927.38;5065296;28;20408;-66
2022/06/20 10:04:30;;;;;;;9.52;4.68;;;;;;;26.39;47.82;96929.56;5064569;28;20040;-67
2022/06/20 10:08:02;;;;;;;14.85;4.70;;;;;;;26.31;48.08;96950.03;5063875;28;20435;-67
2022/06/20 10:10:43;;;;;;;10.30;4.00;;;;;;;26.26;49.19;96928.91;5046744;28;20401;-67
2022/06/20 10:13:14;;;;;;;9.50;4.57;;;;;;;26.55;47.45;96926.69;5046893;28;20094;-67
2022/06/20 10:15:59;;;;;;;;;;;;;;;26.59;47.28;96926.72;5047028;28;20064;-67
2022/06/20 10:18:42;;;;;;;8.48;4.93;;;;;;;26.38;47.54;96936.28;5046786;28;19920;-67
2022/06/20 10:21:33;;;;;;;14.38;4.93;;;;;;;25.78;49.02;96942.97;5046908;28;20493;-67
2022/06/20 10:24:17;;;;;;;10.93;4.20;;;;;;;25.62;49.45;96949.41;5053270;28;20328;-67
2022/06/20 10:26:50;;;;;;;12.48;4.45;;;;;;;25.88;48.27;96942.44;5064403;28;20040;-67
2022/06/20 10:29:30;;;;;;;9.95;3.90;;;;;;;25.68;48.62;96961.00;5064377;28;20045;-67
2022/06/20 10:32:05;;;;;;;12.43;4.95;;;;;;;25.33;49.87;96960.59;5069774;28;20048;-67
2022/06/20 10:34:53;;;;;;;7.53;3.97;;;;;;;25.60;49.76;96956.47;5070043;28;20459;-67
2022/06/20 10:37:33;;;;;;;11.23;4.72;;;;;;;25.39;50.15;96960.34;5069639;28;20045;-67
2022/06/20 10:40:20;;;;;;;9.32;5.53;;;;;;;25.02;50.73;96953.16;5069883;28;20044;-68
2022/06/20 10:42:59;;;;;;;12.98;4.65;;;;;;;24.91;51.75;96955.66;5070134;28;20522;-68
2022/06/20 10:45:49;;;;;;;8.30;4.32;;;;;;;25.72;49.37;96948.00;5060098;28;20029;-68
2022/06/20 10:48:33;;;;;;;14.93;4.68;;;;;;;25.41;50.44;96956.03;5070043;28;20048;-67
2022/06/20 10:51:35;;;;;;;10.45;4.40;;;;;;;25.98;48.95;96952.09;5069857;28;20048;-68
2022/06/20 10:54:13;;;;;;;10.75;4.10;;;;;;;25.82;49.51;96964.09;5068208;28;20048;-68
2022/06/20 10:56:46;;;;;;;8.95;4.28;;;;;;;25.28;51.09;96971.97;5069373;28;20403;-67
2022/06/20 10:59:15;;;;;;;12.95;5.18;;;;;;;25.33;50.69;96971.69;5069427;28;20044;-68
2022/06/20 11:01:57;;;;;;;10.35;4.50;;;;;;;24.91;51.18;96975.03;5061496;28;20376;-68
2022/06/20 11:04:39;;;;;;;12.13;4.07;;;;;;;24.46;52.97;96985.31;5069620;28;20044;-68
2022/06/20 11:07:20;;;;;;;11.35;4.68;;;;;;;24.51;53.46;96991.38;5069645;28;20446;-67
2022/06/20 11:09:59;;;;;;;8.27;4.10;;;;;;;25.13;52.33;96990.19;5069271;28;20406;-67
2022/06/20 11:12:47;;;;;;;9.73;4.28;;;;;;;25.60;51.07;97006.38;5069219;28;20041;-67
2022/06/20 11:15:38;;;;;;;10.45;4.20;;;;;;;25.62;51.39;97006.81;5069022;28;20631;-67
2022/06/20 11:18:29;;;;;;;13.85;4.93;;;;;;;25.85;49.69;97015.25;5073849;28;20495;-67
2022/06/20 11:21:17;;;;;;;13.70;4.72;;;;;;;26.06;49.49;97014.88;5066805;28;20052;-67
2022/06/20 11:24:10;;;;;;;17.35;5.47;;;;;;;25.92;49.89;97023.72;5067086;28;20411;-67
2022/06/20 11:26:48;;;;;;;11.88;4.22;;;;;;;25.74;50.12;97028.88;5073337;28;20093;-67
2022/06/20 11:29:32;;;;;;;13.35;5.45;;;;;;;24.99;51.38;97034.94;5054582;28;20048;-68
2022/06/20 11:32:23;;;;;;;7.95;4.50;;;;;;;24.79;52.42;97034.00;5064343;28;20055;-67
2022/06/20 11:35:15;;;;;;;8.20;4.55;;;;;;;24.51;53.01;97023.78;5066696;28;20078;-67
2022/06/20 11:37:47;;;;;;;;;;;;;;;24.58;52.43;97039.78;5058738;28;20051;-67
2022/06/20 11:40:43;;;;;;;10.32;4.65;;;;;;;24.37;53.10;97033.31;5068516;28;19921;-67
2022/06/20 11:43:22;;;;;;;8.00;4.05;;;;;;;24.36;53.94;97028.13;5067855;28;20469;-67
2022/06/20 11:46:26;;;;;;;12.02;4.45;;;;;;;24.77;52.68;97039.13;5068656;28;20040;-67
2022/06/20 11:49:30;;;;;;;8.77;3.88;;;;;;;24.57;52.68;97041.72;5068497;28;20251;-67
2022/06/20 11:52:13;;;;;;;8.90;3.60;;;;;;;24.13;52.31;97039.69;5068122;28;20060;-67
2022/06/20 11:54:48;;;;;;;9.05;3.70;;;;;;;24.29;52.51;97042.56;5068776;28;20053;-66
2022/06/20 11:57:35;;;;;;;10.50;3.75;;;;;;;24.25;52.12;97047.97;5068325;28;20130;-67
2022/06/20 12:00:03;;;;;;;10.27;3.55;;;;;;;24.27;52.19;97045.66;5068110;28;20040;-67
2022/06/20 12:03:02;;;;;;;5.88;3.03;;;;;;;24.11;51.94;97053.09;5068579;28;20048;-67
2022/06/20 12:05:29;;;;;;;7.30;3.08;;;;;;;24.34;51.66;97055.31;5068394;28;20335;-68
2022/06/20 12:08:28;;;;;;;6.47;2.88;;;;;;;25.40;49.83;97061.69;5067614;28;20048;-67
2022/06/20 12:10:58;;;;;;;7.75;2.28;;;;;;;25.74;48.16;97058.53;5067770;28;20102;-68
2022/06/20 12:13:25;;;;;;;6.03;2.28;;;;;;;26.30;45.90;97056.63;5065886;28;20040;-67
2022/06/20 12:15:56;;;;;;;6.97;2.85;;;;;;;26.50;47.03;97074.09;5065802;28;20048;-68
2022/06/20 12:24:23;;;;;;;10.60;3.90;;;;;;;24.66;52.25;97086.66;5065942;28;20044;-67
2022/06/20 12:26:52;;;;;;;13.77;4.35;;;;;;;24.91;51.30;97096.88;5066405;28;20048;-68
2022/06/20 12:29:22;;;;;;;11.40;4.88;;;;;;;24.14;53.02;97080.84;5064955;28;20192;-67
2022/06/20 12:31:53;;;;;;;11.77;4.05;;;;;;;24.66;52.60;97088.66;5065433;28;20502;-68